Terminal Aerodrome Forecast
Issued by NWS

Home | Current Version | Previous Version | Graphics & Text | Print | Product List | Glossary On
Versions: 1 2 3 4 5 6 7 8 9 10 11 12 13
472
FTUS45 KGGW 201120
TAFSDY
TAF
KSDY 201120Z 2012/2112 06006KT P6SM BKN200
     FM201400 10007KT P6SM BKN200
     FM202300 13012KT P6SM FEW220
     FM210500 17007KT P6SM FEW090=

USA.gov is the U.S. government's official web portal to all federal, state and local government web resources and services.